Time;durP1;ratioP1;P1;durP2;ratioP2;P2;SDS_P1;SDS_P2;PMS_P1;PMS_P2;Temp;Humidity;BMP_temperature;BMP_pressure;BME280_temperature;BME280_humidity;BME280_pressure;Samples;Min_cycle;Max_cycle;Signal;HPM_P1;HPM_P2
2022/12/22 03:26:54;;;;;;;10.27;9.38;;;9.40;99.90;;;;;;5052340;28;20228;-77
2022/12/22 03:29:23;;;;;;;10.98;9.88;;;9.40;99.90;;;;;;5052553;28;20305;-76
2022/12/22 03:31:52;;;;;;;10.00;9.00;;;9.40;99.90;;;;;;5051311;28;20240;-76
2022/12/22 03:34:24;;;;;;;10.43;9.32;;;9.50;99.90;;;;;;5051567;28;20224;-77
2022/12/22 03:36:51;;;;;;;9.38;8.40;;;9.50;99.90;;;;;;5050639;28;20311;-76
2022/12/22 03:39:17;;;;;;;14.77;8.80;;;9.50;99.90;;;;;;5051803;28;20225;-77
2022/12/22 03:47:15;;;;;;;10.43;9.32;;;9.50;99.90;;;;;;5052278;28;20346;-76
2022/12/22 03:49:49;;;;;;;10.48;9.52;;;9.50;99.90;;;;;;5043195;28;20259;-76
2022/12/22 03:52:16;;;;;;;8.88;8.00;;;9.50;99.90;;;;;;5051468;28;20741;-76
2022/12/22 03:54:43;;;;;;;10.90;9.45;;;9.50;99.90;;;;;;5050819;28;20307;-76
2022/12/22 03:57:13;;;;;;;9.18;8.27;;;9.60;99.90;;;;;;5051963;28;20251;-76
2022/12/22 03:59:40;;;;;;;9.50;8.60;;;9.50;99.90;;;;;;5051668;28;20303;-76
2022/12/22 04:02:07;;;;;;;8.85;7.93;;;9.50;99.90;;;;;;5041222;28;20319;-76
2022/12/22 04:04:34;;;;;;;10.02;8.65;;;9.60;99.90;;;;;;5052118;28;20286;-76
2022/12/22 04:07:06;;;;;;;9.40;8.50;;;9.60;99.90;;;;;;5051137;28;20275;-76
2022/12/22 04:12:52;;;;;;;10.43;9.43;;;9.60;99.90;;;;;;5043250;28;20259;-76
2022/12/22 04:15:10;;;;;;;10.25;9.25;;;9.60;99.90;;;;;;5051373;28;20697;-76
2022/12/22 04:17:39;;;;;;;10.95;9.90;;;9.60;99.90;;;;;;5041764;28;20689;-77
2022/12/22 04:20:07;;;;;;;9.77;8.77;;;9.60;99.90;;;;;;5050964;28;20229;-77
2022/12/22 04:22:35;;;;;;;9.85;9.05;;;9.60;99.90;;;;;;5051908;28;20257;-77
2022/12/22 04:25:04;;;;;;;11.13;10.02;;;9.60;99.90;;;;;;5051812;28;20308;-77
2022/12/22 04:27:31;;;;;;;10.65;9.65;;;9.60;99.90;;;;;;5051497;28;20278;-77
2022/12/22 04:29:58;;;;;;;13.85;9.90;;;9.60;99.90;;;;;;5051736;28;20308;-76
2022/12/22 04:32:25;;;;;;;11.90;10.70;;;9.60;99.90;;;;;;5051330;28;20244;-76
2022/12/22 04:34:55;;;;;;;14.25;10.45;;;9.60;99.90;;;;;;5051786;28;20271;-76
2022/12/22 04:37:28;;;;;;;11.05;9.95;;;9.60;99.90;;;;;;5040028;28;20259;-77
2022/12/22 04:39:58;;;;;;;9.55;8.65;;;9.60;99.90;;;;;;5051528;28;20247;-77
2022/12/22 04:42:26;;;;;;;10.88;9.75;;;9.70;99.90;;;;;;5040543;28;20231;-76
2022/12/22 04:44:53;;;;;;;9.20;8.30;;;9.70;99.90;;;;;;5053908;28;20297;-76
2022/12/22 04:47:20;;;;;;;12.82;11.32;;;9.70;99.90;;;;;;5054889;28;20376;-76
2022/12/22 04:49:47;;;;;;;10.20;9.10;;;9.70;99.90;;;;;;5054943;28;20290;-76
2022/12/22 04:52:14;;;;;;;9.60;8.70;;;9.70;99.90;;;;;;5055030;28;20223;-76
2022/12/22 04:54:41;;;;;;;9.40;8.32;;;9.70;99.90;;;;;;5054048;28;20303;-77
2022/12/22 04:57:09;;;;;;;11.00;9.90;;;9.70;99.90;;;;;;5055369;28;20227;-77
2022/12/22 04:59:36;;;;;;;12.00;10.90;;;9.80;99.90;;;;;;5054345;28;20308;-77
2022/12/22 05:02:03;;;;;;;11.70;10.60;;;9.70;99.90;;;;;;5055179;28;20311;-76
2022/12/22 05:04:31;;;;;;;9.55;8.55;;;9.70;99.90;;;;;;5055346;28;20225;-77
2022/12/22 05:06:58;;;;;;;9.80;8.90;;;9.70;99.90;;;;;;5055342;28;20607;-77
2022/12/22 05:09:27;;;;;;;12.10;10.20;;;9.80;99.90;;;;;;5054708;28;20228;-77
2022/12/22 05:11:53;;;;;;;10.90;10.00;;;9.70;99.90;;;;;;5055345;28;20224;-76
2022/12/22 05:14:25;;;;;;;12.80;11.60;;;9.80;99.90;;;;;;5053985;28;20224;-77
2022/12/22 05:16:52;;;;;;;14.07;11.05;;;9.70;99.90;;;;;;5055209;28;20263;-77
2022/12/22 05:19:21;;;;;;;14.50;12.50;;;9.70;99.90;;;;;;5054198;28;20267;-77
2022/12/22 05:21:49;;;;;;;12.38;11.10;;;9.70;99.90;;;;;;5054363;28;20308;-77
2022/12/22 05:24:16;;;;;;;14.20;12.25;;;9.70;99.90;;;;;;5054539;28;20229;-77
2022/12/22 05:26:43;;;;;;;12.75;11.20;;;9.70;99.90;;;;;;5053960;28;20248;-78
2022/12/22 05:29:09;;;;;;;13.00;11.57;;;9.70;99.90;;;;;;5054377;28;20598;-77
2022/12/22 05:31:38;;;;;;;12.77;11.43;;;9.70;99.90;;;;;;5053641;28;20224;-77
2022/12/22 05:34:05;;;;;;;13.13;11.73;;;9.70;99.90;;;;;;5053674;28;20730;-78
2022/12/22 05:36:32;;;;;;;13.68;12.38;;;9.80;99.90;;;;;;5053649;28;20236;-77
2022/12/22 05:39:05;;;;;;;12.75;11.45;;;9.80;99.90;;;;;;5053893;28;20307;-78
2022/12/22 05:41:32;;;;;;;13.20;11.93;;;9.80;99.90;;;;;;5053355;28;20312;-78
2022/12/22 05:43:59;;;;;;;12.23;11.10;;;9.80;99.90;;;;;;5054135;28;20303;-77
2022/12/22 05:46:26;;;;;;;12.38;11.10;;;9.90;99.90;;;;;;5053466;28;20312;-78
2022/12/22 05:48:57;;;;;;;14.32;12.82;;;9.80;99.90;;;;;;5054202;28;20358;-78
2022/12/22 05:51:24;;;;;;;14.18;12.70;;;9.80;99.90;;;;;;5042906;28;20312;-77
2022/12/22 05:53:51;;;;;;;14.77;12.05;;;9.80;99.90;;;;;;5042824;28;20219;-78
2022/12/22 05:56:19;;;;;;;15.15;13.55;;;9.80;99.90;;;;;;5053346;28;20327;-77
2022/12/22 05:58:49;;;;;;;12.73;11.30;;;9.80;99.90;;;;;;5053166;28;20293;-77
2022/12/22 06:01:15;;;;;;;15.30;13.02;;;9.90;99.90;;;;;;5054053;28;20224;-77
2022/12/22 06:03:45;;;;;;;14.52;13.13;;;9.90;99.90;;;;;;5042954;28;20307;-77
2022/12/22 06:06:14;;;;;;;12.98;11.77;;;9.90;99.90;;;;;;5053022;28;20228;-77
2022/12/22 06:08:40;;;;;;;14.45;12.65;;;9.90;99.90;;;;;;5053138;28;20734;-77
2022/12/22 06:11:10;;;;;;;15.40;13.80;;;9.90;99.90;;;;;;5053351;28;20236;-76
2022/12/22 06:13:37;;;;;;;14.20;12.70;;;9.90;99.90;;;;;;5053165;28;20221;-76
2022/12/22 06:16:07;;;;;;;15.00;13.05;;;9.80;99.90;;;;;;5053768;28;20308;-76
2022/12/22 06:18:34;;;;;;;16.42;14.82;;;9.90;99.90;;;;;;5053131;28;20288;-78
2022/12/22 06:21:01;;;;;;;16.67;14.45;;;9.80;99.90;;;;;;5052754;28;20656;-76
2022/12/22 06:23:32;;;;;;;16.40;14.55;;;9.80;99.90;;;;;;5053241;28;20246;-76
2022/12/22 06:26:01;;;;;;;15.80;14.10;;;9.80;99.90;;;;;;5052701;28;20231;-76
2022/12/22 06:28:31;;;;;;;15.35;13.70;;;9.80;99.90;;;;;;5039386;28;20315;-77
2022/12/22 06:31:01;;;;;;;15.15;12.70;;;9.80;99.90;;;;;;5053708;28;20224;-77
2022/12/22 06:33:31;;;;;;;16.92;15.18;;;9.90;99.90;;;;;;5034149;28;20596;-77
2022/12/22 06:36:00;;;;;;;16.20;14.50;;;9.90;99.90;;;;;;5052968;28;20341;-77
2022/12/22 06:38:32;;;;;;;15.32;13.73;;;9.90;99.90;;;;;;5042441;28;20324;-77
2022/12/22 06:41:01;;;;;;;18.05;15.05;;;9.90;99.90;;;;;;5053285;28;20221;-79
2022/12/22 06:43:36;;;;;;;15.45;13.82;;;9.90;99.90;;;;;;5051991;28;20228;-78
2022/12/22 06:46:12;;;;;;;17.08;14.63;;;9.90;99.90;;;;;;5052479;28;20263;-77
2022/12/22 06:48:39;;;;;;;15.85;14.15;;;9.90;99.90;;;;;;5051819;28;20230;-77
2022/12/22 06:51:06;;;;;;;16.10;14.40;;;9.90;99.90;;;;;;5052752;28;20286;-78
2022/12/22 06:53:36;;;;;;;16.63;14.68;;;9.90;99.90;;;;;;5052161;28;20307;-77
2022/12/22 06:56:05;;;;;;;15.68;13.85;;;9.90;99.90;;;;;;5052769;28;20228;-78
2022/12/22 06:58:33;;;;;;;15.55;13.32;;;9.90;99.90;;;;;;5052449;28;20231;-79
2022/12/22 07:01:02;;;;;;;14.70;13.13;;;9.90;99.90;;;;;;5052457;28;20277;-79
2022/12/22 07:03:31;;;;;;;15.57;13.93;;;10.00;99.90;;;;;;5052545;28;20236;-77
2022/12/22 07:06:00;;;;;;;16.13;14.40;;;10.00;99.90;;;;;;5052203;28;20221;-77
2022/12/22 07:08:26;;;;;;;21.00;14.00;;;10.00;99.90;;;;;;5039688;28;20240;-76
2022/12/22 07:10:58;;;;;;;18.13;15.63;;;10.00;99.90;;;;;;5051813;28;20228;-77
2022/12/22 07:13:26;;;;;;;16.17;14.48;;;10.00;99.90;;;;;;5052567;28;20623;-76
2022/12/22 07:15:54;;;;;;;17.40;15.13;;;10.00;99.90;;;;;;5052034;28;20690;-76
2022/12/22 07:18:24;;;;;;;18.65;16.00;;;10.00;99.90;;;;;;5052573;28;20223;-77
2022/12/22 07:20:51;;;;;;;16.65;14.93;;;10.00;99.90;;;;;;5040383;28;20232;-77
2022/12/22 07:23:19;;;;;;;16.65;14.85;;;10.00;99.90;;;;;;5052299;28;20299;-76
2022/12/22 07:25:46;;;;;;;20.05;14.25;;;10.00;99.90;;;;;;5049723;28;20247;-76
2022/12/22 07:28:14;;;;;;;17.58;15.27;;;10.00;99.90;;;;;;5042657;28;20555;-76
2022/12/22 07:30:41;;;;;;;17.45;15.52;;;10.00;99.90;;;;;;5051085;28;20302;-76
2022/12/22 07:33:11;;;;;;;15.95;13.95;;;10.00;99.90;;;;;;5042958;28;20300;-76
2022/12/22 07:35:41;;;;;;;15.05;13.65;;;10.00;99.90;;;;;;5052132;28;20248;-77
2022/12/22 07:38:10;;;;;;;16.40;14.70;;;10.00;99.90;;;;;;5050155;28;20654;-76
2022/12/22 07:40:37;;;;;;;17.20;14.32;;;10.10;99.90;;;;;;5051000;28;20240;-77
2022/12/22 07:43:03;;;;;;;14.93;13.35;;;10.00;99.90;;;;;;5051770;28;22066;-76
2022/12/22 07:45:32;;;;;;;18.48;14.60;;;10.10;99.90;;;;;;5052297;28;20451;-77
2022/12/22 07:48:00;;;;;;;14.13;12.75;;;10.00;99.90;;;;;;5051632;28;20251;-77
2022/12/22 07:50:31;;;;;;;16.52;14.70;;;10.00;99.90;;;;;;5051896;28;20233;-76
2022/12/22 07:53:01;;;;;;;16.42;14.50;;;10.00;99.90;;;;;;5041008;28;20231;-77
2022/12/22 07:55:33;;;;;;;16.65;14.30;;;10.00;99.90;;;;;;5051582;28;20648;-77
2022/12/22 07:58:03;;;;;;;16.65;15.00;;;10.00;99.90;;;;;;5040777;28;20678;-77
2022/12/22 08:00:31;;;;;;;18.02;16.00;;;10.00;99.90;;;;;;5042185;28;20235;-77
2022/12/22 08:03:00;;;;;;;17.67;15.52;;;10.00;99.90;;;;;;5051187;28;20307;-78
2022/12/22 08:05:27;;;;;;;20.80;15.57;;;10.00;99.90;;;;;;5052063;28;20233;-76
2022/12/22 08:07:56;;;;;;;17.83;16.02;;;10.00;99.90;;;;;;5050721;28;20310;-77
2022/12/22 08:10:23;;;;;;;14.00;12.43;;;9.90;99.90;;;;;;5051721;28;20244;-76
2022/12/22 08:12:55;;;;;;;18.38;16.48;;;10.00;99.90;;;;;;5043213;28;20228;-77
2022/12/22 08:15:37;;;;;;;14.27;12.77;;;10.00;99.90;;;;;;5049233;28;20220;-77
2022/12/22 08:18:06;;;;;;;17.27;15.05;;;10.00;99.90;;;;;;5054624;28;20303;-77
2022/12/22 08:20:39;;;;;;;14.48;12.98;;;10.00;99.90;;;;;;5055741;28;20303;-76
2022/12/22 08:23:06;;;;;;;18.20;14.70;;;10.00;99.90;;;;;;5054541;28;20228;-76
2022/12/22 08:25:35;;;;;;;14.13;12.73;;;10.00;99.90;;;;;;5056028;28;20236;-77
2022/12/22 08:28:02;;;;;;;15.90;14.30;;;10.00;99.90;;;;;;5046717;28;20229;-77
2022/12/22 08:30:35;;;;;;;17.38;15.07;;;10.00;99.90;;;;;;5055808;28;20255;-77
2022/12/22 08:33:06;;;;;;;16.30;14.32;;;10.00;99.90;;;;;;5054535;28;20240;-77
2022/12/22 08:35:39;;;;;;;14.15;12.55;;;10.00;99.90;;;;;;5055632;28;20667;-77
2022/12/22 08:38:07;;;;;;;15.52;13.00;;;10.00;99.90;;;;;;5054513;28;20268;-77
2022/12/22 08:40:37;;;;;;;17.48;13.23;;;10.00;99.90;;;;;;5055160;28;20312;-77
2022/12/22 08:43:07;;;;;;;14.95;13.32;;;10.00;99.90;;;;;;5055097;28;20233;-78
2022/12/22 08:45:34;;;;;;;13.55;12.35;;;10.00;99.90;;;;;;5055438;28;20228;-77
2022/12/22 08:48:01;;;;;;;16.05;12.93;;;10.10;99.90;;;;;;5054889;28;20328;-78
2022/12/22 08:50:29;;;;;;;18.55;13.13;;;10.10;99.90;;;;;;5054735;28;20225;-78
2022/12/22 08:53:02;;;;;;;15.27;13.05;;;10.10;99.90;;;;;;5055111;28;20561;-78
2022/12/22 08:55:30;;;;;;;17.80;14.50;;;10.10;99.90;;;;;;5054608;28;20232;-77
2022/12/22 08:57:57;;;;;;;15.23;12.95;;;10.10;99.90;;;;;;5055087;28;20239;-77
2022/12/22 09:00:25;;;;;;;18.17;13.77;;;10.20;99.90;;;;;;5054470;28;20252;-77
2022/12/22 09:02:52;;;;;;;15.27;12.07;;;10.10;99.90;;;;;;5054940;28;20228;-78
2022/12/22 09:05:25;;;;;;;13.25;11.95;;;10.10;99.90;;;;;;5054205;28;20299;-77
2022/12/22 09:07:57;;;;;;;20.42;17.15;;;10.20;99.90;;;;;;5054678;28;20216;-77
2022/12/22 09:10:24;;;;;;;15.90;13.27;;;10.20;99.90;;;;;;5054148;28;20316;-77
2022/12/22 09:12:51;;;;;;;12.82;11.52;;;10.20;99.90;;;;;;5054817;28;20217;-77
2022/12/22 09:15:27;;;;;;;14.07;11.85;;;10.30;99.90;;;;;;5054838;28;20252;-77
2022/12/22 09:17:56;;;;;;;12.85;11.40;;;10.30;99.90;;;;;;5054656;28;20232;-77
2022/12/22 09:20:23;;;;;;;11.23;10.15;;;10.30;99.90;;;;;;5053531;28;20224;-79
2022/12/22 09:22:50;;;;;;;14.75;11.63;;;10.30;99.90;;;;;;5054832;28;20220;-78
2022/12/22 09:25:19;;;;;;;11.60;10.48;;;10.30;99.90;;;;;;5053419;28;20666;-77
2022/12/22 09:27:45;;;;;;;11.30;9.57;;;10.40;99.90;;;;;;5054244;28;20241;-77
2022/12/22 09:30:13;;;;;;;12.00;10.77;;;10.50;99.90;;;;;;5043251;28;20312;-78
2022/12/22 09:32:40;;;;;;;12.25;10.95;;;10.40;99.90;;;;;;5053760;28;20717;-77
2022/12/22 09:35:10;;;;;;;12.18;10.95;;;10.40;99.90;;;;;;5043666;28;20235;-77
2022/12/22 09:37:37;;;;;;;9.88;8.88;;;10.40;99.90;;;;;;5053327;28;21233;-76
2022/12/22 09:40:05;;;;;;;11.98;10.77;;;10.40;99.90;;;;;;5044642;28;20568;-77
2022/12/22 09:42:37;;;;;;;10.02;9.05;;;10.40;99.90;;;;;;5053687;28;20244;-78
2022/12/22 09:45:05;;;;;;;11.40;10.27;;;10.40;99.90;;;;;;5044410;28;20221;-76
2022/12/22 09:47:36;;;;;;;11.13;9.82;;;10.40;99.90;;;;;;5041982;28;20228;-77
2022/12/22 09:50:05;;;;;;;12.05;9.85;;;10.40;99.90;;;;;;5053920;28;20259;-76
2022/12/22 09:52:46;;;;;;;12.32;10.00;;;10.50;99.90;;;;;;5053891;28;20229;-76
2022/12/22 09:55:20;;;;;;;10.70;9.43;;;10.40;99.90;;;;;;5054244;28;20670;-77
2022/12/22 09:57:52;;;;;;;10.65;9.65;;;10.40;99.90;;;;;;5051234;28;20225;-78
2022/12/22 10:00:21;;;;;;;10.63;9.38;;;10.50;99.90;;;;;;5055040;28;20248;-78
2022/12/22 10:02:56;;;;;;;11.95;9.98;;;10.40;99.90;;;;;;5054432;28;20237;-78
2022/12/22 10:05:37;;;;;;;10.13;8.30;;;10.50;99.90;;;;;;5042630;28;20250;-78
2022/12/22 10:08:10;;;;;;;15.38;12.98;;;10.50;99.90;;;;;;5052390;28;20293;-78
2022/12/22 10:10:38;;;;;;;14.07;12.48;;;10.50;99.90;;;;;;5053503;28;20243;-78
2022/12/22 10:13:14;;;;;;;13.63;11.32;;;10.50;99.90;;;;;;5048777;28;20582;-77
2022/12/22 10:15:42;;;;;;;15.07;10.70;;;10.50;99.90;;;;;;5053094;28;20253;-77
2022/12/22 10:18:12;;;;;;;11.30;10.20;;;10.50;99.90;;;;;;5052336;28;20221;-77
2022/12/22 10:20:40;;;;;;;11.93;10.57;;;10.50;99.90;;;;;;5053825;28;20239;-77
2022/12/22 10:23:28;;;;;;;10.73;9.52;;;10.50;99.90;;;;;;5052270;28;20568;-77
2022/12/22 10:26:05;;;;;;;12.07;10.77;;;10.50;99.90;;;;;;5052657;28;20344;-77
2022/12/22 10:28:41;;;;;;;13.10;11.40;;;10.50;99.90;;;;;;5053495;28;20230;-78
2022/12/22 10:31:19;;;;;;;14.48;12.98;;;10.50;99.90;;;;;;5041649;28;20227;-77
2022/12/22 10:33:49;;;;;;;14.57;13.18;;;10.60;99.90;;;;;;5051640;28;20229;-77
2022/12/22 10:36:22;;;;;;;14.10;12.60;;;10.60;99.90;;;;;;5053373;28;20232;-77
2022/12/22 10:39:01;;;;;;;12.80;11.40;;;10.60;99.90;;;;;;5049068;28;20286;-78
2022/12/22 10:41:32;;;;;;;10.82;9.65;;;10.60;99.90;;;;;;5052297;28;20251;-77
2022/12/22 10:44:04;;;;;;;11.38;10.18;;;10.70;99.90;;;;;;5052906;28;20701;-79
2022/12/22 10:46:38;;;;;;;11.00;10.00;;;10.60;99.90;;;;;;5053240;28;20233;-79
2022/12/22 10:49:12;;;;;;;10.55;9.45;;;10.70;99.90;;;;;;5051506;28;20243;-78
2022/12/22 10:51:40;;;;;;;9.82;8.82;;;10.70;99.90;;;;;;5052735;28;20251;-77
2022/12/22 10:54:07;;;;;;;9.38;8.32;;;10.70;99.90;;;;;;5051402;28;20225;-76
2022/12/22 10:56:36;;;;;;;10.20;9.20;;;10.80;99.90;;;;;;5052624;28;20244;-77
2022/12/22 10:59:23;;;;;;;10.77;9.27;;;10.80;99.90;;;;;;5052052;28;20409;-76
2022/12/22 11:01:50;;;;;;;9.68;8.68;;;10.80;99.90;;;;;;5051602;28;20240;-77
2022/12/22 11:04:25;;;;;;;10.02;9.02;;;10.80;99.90;;;;;;5052595;28;20297;-78
2022/12/22 11:06:55;;;;;;;9.70;8.70;;;10.80;99.90;;;;;;5051592;28;20282;-78
2022/12/22 11:09:26;;;;;;;9.70;8.75;;;10.80;99.90;;;;;;5051207;28;20588;-76
2022/12/22 11:12:01;;;;;;;9.85;8.70;;;10.80;99.90;;;;;;5051743;28;20248;-77
2022/12/22 11:14:43;;;;;;;10.23;9.25;;;10.80;99.90;;;;;;5052036;28;20217;-79
2022/12/22 11:17:17;;;;;;;14.32;10.25;;;10.90;99.90;;;;;;5051499;28;20303;-79
2022/12/22 11:20:05;;;;;;;9.27;8.38;;;10.90;99.90;;;;;;5052267;28;20232;-77
2022/12/22 11:22:40;;;;;;;12.20;11.02;;;10.90;99.90;;;;;;5052310;28;20715;-77
2022/12/22 11:25:29;;;;;;;11.43;10.00;;;10.90;99.90;;;;;;5051835;28;20300;-77
2022/12/22 11:28:19;;;;;;;12.32;10.60;;;10.90;99.90;;;;;;5043071;28;20315;-77
2022/12/22 11:31:03;;;;;;;13.15;11.32;;;10.90;99.90;;;;;;5051231;28;20241;-77
2022/12/22 11:33:50;;;;;;;12.60;11.30;;;10.80;99.90;;;;;;5043429;28;20244;-77
2022/12/22 11:36:29;;;;;;;11.38;10.27;;;10.90;99.90;;;;;;5051614;28;20216;-77
2022/12/22 11:39:03;;;;;;;11.75;9.60;;;10.90;99.90;;;;;;5042216;28;20690;-76
2022/12/22 11:41:48;;;;;;;10.00;9.02;;;10.90;99.90;;;;;;5051649;28;20227;-77
2022/12/22 11:44:40;;;;;;;10.40;9.50;;;10.90;99.90;;;;;;5039979;28;20303;-78
2022/12/22 11:47:23;;;;;;;10.38;9.38;;;10.90;99.90;;;;;;5052238;28;20311;-77
2022/12/22 11:50:18;;;;;;;9.52;8.52;;;10.90;99.90;;;;;;5050979;28;20307;-78
2022/12/22 11:53:06;;;;;;;8.95;8.05;;;10.90;99.90;;;;;;5054903;28;20311;-78
2022/12/22 11:55:43;;;;;;;8.70;7.90;;;10.90;99.90;;;;;;5054791;28;20235;-78
2022/12/22 11:58:33;;;;;;;9.80;8.85;;;10.90;99.90;;;;;;5056166;28;20243;-78
2022/12/22 12:01:17;;;;;;;9.52;8.55;;;11.00;99.90;;;;;;5055843;28;20221;-79
2022/12/22 12:04:19;;;;;;;8.35;7.28;;;11.00;99.90;;;;;;5054580;28;20718;-77
2022/12/22 12:07:04;;;;;;;9.82;8.82;;;11.00;99.90;;;;;;5046616;28;20274;-77
2022/12/22 12:09:39;;;;;;;8.82;8.02;;;11.00;99.90;;;;;;5056018;28;20252;-77
2022/12/22 12:12:19;;;;;;;10.43;9.45;;;11.00;99.90;;;;;;5055521;28;20224;-77
2022/12/22 12:14:55;;;;;;;8.80;7.90;;;11.10;99.90;;;;;;5055608;28;20522;-78
2022/12/22 12:17:33;;;;;;;9.60;8.50;;;11.10;99.90;;;;;;5055687;28;20225;-78
2022/12/22 12:20:22;;;;;;;9.98;9.07;;;11.10;99.90;;;;;;5055210;28;20315;-78
2022/12/22 12:23:06;;;;;;;9.15;8.25;;;11.10;99.90;;;;;;5055289;28;20234;-79
2022/12/22 12:25:40;;;;;;;8.00;7.20;;;11.10;99.90;;;;;;5055583;28;20232;-78
2022/12/22 12:28:18;;;;;;;9.23;8.30;;;11.20;99.90;;;;;;5043840;28;20224;-77
2022/12/22 12:30:52;;;;;;;9.90;9.00;;;11.20;99.90;;;;;;5046308;28;20561;-77
2022/12/22 12:33:54;;;;;;;8.23;7.47;;;11.20;99.90;;;;;;5055463;28;20234;-77
2022/12/22 12:36:30;;;;;;;8.40;7.70;;;11.20;99.90;;;;;;5045532;28;20565;-77
2022/12/22 12:39:04;;;;;;;7.93;7.32;;;11.20;99.90;;;;;;5055324;28;20561;-77
2022/12/22 12:41:40;;;;;;;8.88;8.07;;;11.30;99.90;;;;;;5040819;28;20305;-77
2022/12/22 12:44:14;;;;;;;10.25;8.38;;;11.20;99.90;;;;;;5055183;28;20311;-78
2022/12/22 12:47:06;;;;;;;7.47;6.78;;;11.30;99.90;;;;;;5055406;28;20324;-78
2022/12/22 12:49:54;;;;;;;8.48;7.78;;;11.30;99.90;;;;;;5054726;28;20686;-78
2022/12/22 12:52:55;;;;;;;6.80;6.20;;;11.30;99.90;;;;;;5054597;28;20224;-78
2022/12/22 12:55:31;;;;;;;8.32;6.55;;;11.30;99.90;;;;;;5054748;28;20213;-78
2022/12/22 12:58:02;;;;;;;6.78;6.28;;;11.30;99.90;;;;;;5044699;28;20654;-77
2022/12/22 13:00:47;;;;;;;7.57;6.93;;;11.30;99.90;;;;;;5054653;28;20237;-77
2022/12/22 13:03:38;;;;;;;11.30;10.32;;;11.30;99.90;;;;;;5053768;28;20221;-77
2022/12/22 13:06:08;;;;;;;8.38;7.68;;;11.30;99.90;;;;;;5055099;28;20282;-77
2022/12/22 13:09:12;;;;;;;8.10;7.40;;;11.30;99.90;;;;;;5054857;28;20225;-79
2022/12/22 13:11:41;;;;;;;9.48;8.57;;;11.30;99.90;;;;;;5050499;28;20217;-78
2022/12/22 13:14:08;;;;;;;7.57;6.88;;;11.30;99.90;;;;;;5054888;28;20669;-78
2022/12/22 13:16:37;;;;;;;7.85;7.15;;;11.30;99.90;;;;;;5055608;28;20238;-78
2022/12/22 13:19:12;;;;;;;8.00;7.40;;;11.30;99.90;;;;;;5054680;28;20407;-78
2022/12/22 13:21:42;;;;;;;7.57;6.88;;;11.30;99.90;;;;;;5054302;28;20251;-78
2022/12/22 13:24:19;;;;;;;6.45;5.95;;;11.30;99.90;;;;;;5057667;28;20221;-78
2022/12/22 13:26:53;;;;;;;8.07;7.38;;;11.30;99.90;;;;;;5050085;28;20248;-78
2022/12/22 13:29:34;;;;;;;7.63;6.95;;;11.30;99.90;;;;;;5048433;28;20271;-78
2022/12/22 13:32:17;;;;;;;7.40;6.80;;;11.30;99.90;;;;;;5064354;28;20220;-78
2022/12/22 13:34:53;;;;;;;7.70;7.00;;;11.30;99.90;;;;;;5064250;28;20227;-78
2022/12/22 13:37:24;;;;;;;8.13;7.43;;;11.30;99.90;;;;;;5069543;28;20232;-78
2022/12/22 13:40:13;;;;;;;6.90;6.30;;;11.30;99.90;;;;;;5068768;28;20251;-78
2022/12/22 13:42:45;;;;;;;7.60;6.90;;;11.30;99.90;;;;;;5069489;28;20220;-78
2022/12/22 13:45:21;;;;;;;9.38;8.20;;;11.40;99.90;;;;;;5067409;28;20221;-78
2022/12/22 13:47:57;;;;;;;7.82;7.13;;;11.40;99.90;;;;;;5062840;28;20258;-77
2022/12/22 13:50:28;;;;;;;8.32;7.63;;;11.40;99.90;;;;;;5065720;28;20231;-77
2022/12/22 13:52:57;;;;;;;8.32;7.53;;;11.40;99.90;;;;;;5065109;28;20225;-77
2022/12/22 13:55:28;;;;;;;7.13;6.53;;;11.30;99.90;;;;;;5054570;28;20234;-78
2022/12/22 13:58:05;;;;;;;7.20;6.50;;;11.40;99.90;;;;;;5065194;28;20235;-78
2022/12/22 14:00:33;;;;;;;7.60;6.90;;;11.40;99.90;;;;;;5059480;28;20243;-79
2022/12/22 14:03:00;;;;;;;7.35;6.75;;;11.40;99.90;;;;;;5049109;28;20231;-78
2022/12/22 14:05:31;;;;;;;6.90;6.40;;;11.40;99.90;;;;;;5053439;28;20221;-78
2022/12/22 14:08:07;;;;;;;6.47;5.93;;;11.40;99.90;;;;;;5053702;28;20231;-78
2022/12/22 14:10:37;;;;;;;6.68;6.13;;;11.40;99.90;;;;;;5052841;28;20304;-79
2022/12/22 14:16:04;;;;;;;6.85;6.25;;;11.40;99.90;;;;;;5033961;28;20232;-78
2022/12/22 14:18:33;;;;;;;5.95;5.25;;;11.40;99.90;;;;;;5032485;28;20542;-78
2022/12/22 14:21:04;;;;;;;8.38;7.40;;;11.40;99.90;;;;;;5053181;28;20303;-77
2022/12/22 14:23:43;;;;;;;9.93;9.05;;;11.40;99.90;;;;;;5051937;28;20224;-77
2022/12/22 14:26:17;;;;;;;15.93;13.40;;;11.40;99.90;;;;;;5052074;28;20303;-77
2022/12/22 14:28:52;;;;;;;12.40;11.10;;;11.40;99.90;;;;;;5052773;28;20216;-77
2022/12/22 14:31:21;;;;;;;11.02;9.93;;;11.40;99.90;;;;;;5056607;28;20216;-77
2022/12/22 14:33:53;;;;;;;9.70;8.77;;;11.40;99.90;;;;;;5052861;28;20248;-75
2022/12/22 14:36:23;;;;;;;9.07;8.18;;;11.40;99.90;;;;;;5052772;28;20307;-77
2022/12/22 14:38:57;;;;;;;9.20;8.32;;;11.40;99.90;;;;;;5053172;28;20251;-76
2022/12/22 14:41:45;;;;;;;14.23;11.95;;;11.40;99.90;;;;;;5052960;28;20250;-77
2022/12/22 14:44:22;;;;;;;10.43;9.40;;;11.40;99.90;;;;;;5052741;28;20229;-76
2022/12/22 14:47:10;;;;;;;11.45;10.30;;;11.40;99.90;;;;;;5053115;28;20303;-76
2022/12/22 14:49:44;;;;;;;10.23;9.32;;;11.30;99.90;;;;;;5053203;28;20228;-78
2022/12/22 14:55:03;;;;;;;10.48;9.00;;;11.30;99.90;;;;;;5051023;28;20224;-77
2022/12/22 14:57:41;;;;;;;17.08;14.30;;;11.30;99.90;;;;;;5052410;28;20301;-77
2022/12/22 15:00:29;;;;;;;12.00;10.70;;;11.20;99.90;;;;;;5039158;28;20221;-77
2022/12/22 15:02:59;;;;;;;12.25;10.93;;;11.20;99.90;;;;;;5050949;28;20221;-76
2022/12/22 15:05:36;;;;;;;10.25;9.15;;;11.20;99.90;;;;;;5052765;28;20604;-76
2022/12/22 15:08:07;;;;;;;9.23;8.32;;;11.20;99.90;;;;;;5041460;28;20298;-76
2022/12/22 15:10:38;;;;;;;9.00;8.20;;;11.20;99.90;;;;;;5052032;28;20248;-76
2022/12/22 15:13:14;;;;;;;9.52;8.60;;;11.20;99.90;;;;;;5052303;28;20296;-77
2022/12/22 15:15:42;;;;;;;16.08;11.65;;;11.20;99.90;;;;;;5052909;28;20220;-78
2022/12/22 15:18:15;;;;;;;10.98;9.85;;;11.10;99.90;;;;;;5051961;28;20239;-78
2022/12/22 15:20:43;;;;;;;10.48;9.45;;;11.10;99.90;;;;;;5052577;28;20260;-77
2022/12/22 15:23:13;;;;;;;10.85;9.75;;;11.20;99.90;;;;;;5052233;28;20315;-78
2022/12/22 15:25:39;;;;;;;10.88;9.82;;;11.20;99.90;;;;;;5052083;28;20229;-77
2022/12/22 15:28:06;;;;;;;10.43;9.02;;;11.20;99.90;;;;;;5051430;28;20253;-77
2022/12/22 15:30:33;;;;;;;11.55;10.45;;;11.20;99.90;;;;;;5052726;28;20370;-77
2022/12/22 15:33:08;;;;;;;11.27;9.20;;;11.20;99.90;;;;;;5051701;28;20220;-77
2022/12/22 15:35:35;;;;;;;9.02;8.13;;;11.20;99.90;;;;;;5043942;28;20700;-78
2022/12/22 15:38:02;;;;;;;9.05;8.20;;;11.20;99.90;;;;;;5051253;28;20224;-77
2022/12/22 15:40:44;;;;;;;16.13;13.00;;;11.20;99.90;;;;;;5032533;28;20229;-77
2022/12/22 15:43:13;;;;;;;11.07;9.80;;;11.20;99.90;;;;;;5051048;28;20224;-77
2022/12/22 15:45:41;;;;;;;11.60;8.57;;;11.20;99.90;;;;;;5042970;28;20233;-77
2022/12/22 15:48:18;;;;;;;10.85;9.70;;;11.20;99.90;;;;;;5051661;28;20308;-77
2022/12/22 15:50:45;;;;;;;10.52;9.43;;;11.20;99.90;;;;;;5052060;28;20236;-76
2022/12/22 15:53:16;;;;;;;10.90;9.63;;;11.20;99.90;;;;;;5051269;28;20220;-77
2022/12/22 15:55:47;;;;;;;14.80;11.18;;;11.20;99.90;;;;;;5042103;28;20303;-76
2022/12/22 15:58:21;;;;;;;12.30;10.50;;;11.20;99.90;;;;;;5050873;28;20713;-77
2022/12/22 16:00:48;;;;;;;13.93;11.30;;;11.20;99.90;;;;;;5051510;28;20324;-77
2022/12/22 16:06:00;;;;;;;13.63;10.50;;;11.20;99.90;;;;;;5049065;28;20224;-77
2022/12/22 16:08:30;;;;;;;14.90;12.93;;;11.20;99.90;;;;;;5052068;28;20232;-76
2022/12/22 16:11:05;;;;;;;19.13;14.75;;;11.20;99.90;;;;;;5051194;28;20308;-75
2022/12/22 16:13:35;;;;;;;14.90;12.32;;;11.10;99.90;;;;;;5052407;28;20232;-76
2022/12/22 16:16:14;;;;;;;14.30;12.57;;;11.10;99.90;;;;;;5036430;28;20222;-77
2022/12/22 16:21:42;;;;;;;15.13;13.10;;;11.10;99.90;;;;;;5049496;28;20266;-77
2022/12/22 16:24:28;;;;;;;14.27;12.10;;;11.10;99.90;;;;;;5042788;28;20755;-77
2022/12/22 16:26:56;;;;;;;17.17;13.82;;;11.10;99.90;;;;;;5050593;28;20224;-77
2022/12/22 16:29:24;;;;;;;17.42;14.20;;;11.10;99.90;;;;;;5051429;28;20229;-77
2022/12/22 16:31:54;;;;;;;18.67;16.70;;;11.10;99.90;;;;;;5046549;28;20216;-76
2022/12/22 16:34:26;;;;;;;21.98;16.40;;;11.10;99.90;;;;;;5030761;28;20316;-77
2022/12/22 16:36:53;;;;;;;21.65;16.08;;;11.00;99.90;;;;;;5036478;28;20308;-77
2022/12/22 16:39:21;;;;;;;19.58;15.88;;;11.00;99.90;;;;;;5053145;28;20263;-78
2022/12/22 16:41:48;;;;;;;22.60;17.35;;;11.00;99.90;;;;;;5054699;28;20217;-77
2022/12/22 16:44:20;;;;;;;21.15;16.35;;;11.00;99.90;;;;;;5052961;28;20220;-77
2022/12/22 16:46:47;;;;;;;19.23;15.90;;;11.00;99.90;;;;;;5053200;28;20274;-76